sensor_id;sensor_type;location;lat;lon;timestamp;pressure;altitude;pressure_sealevel;temperature;humidity
14966;BME280;7577;45.226;5.798;2022-07-15T00:02:09;98074.57;;;25.68;38.65
14966;BME280;7577;45.226;5.798;2022-07-15T00:04:39;98071.15;;;25.65;38.78
14966;BME280;7577;45.226;5.798;2022-07-15T00:07:10;98077.72;;;25.63;39.09
14966;BME280;7577;45.226;5.798;2022-07-15T00:09:41;98078.14;;;25.68;38.09
14966;BME280;7577;45.226;5.798;2022-07-15T00:12:29;98076.60;;;25.71;38.57
14966;BME280;7577;45.226;5.798;2022-07-15T00:17:40;98074.75;;;25.65;38.93
14966;BME280;7577;45.226;5.798;2022-07-15T00:20:12;98078.98;;;25.72;38.78
14966;BME280;7577;45.226;5.798;2022-07-15T00:22:44;98080.20;;;25.75;37.95
14966;BME280;7577;45.226;5.798;2022-07-15T00:25:15;98078.42;;;25.76;37.76
14966;BME280;7577;45.226;5.798;2022-07-15T00:27:53;98075.45;;;25.79;37.85
14966;BME280;7577;45.226;5.798;2022-07-15T00:30:27;98080.66;;;25.80;37.36
14966;BME280;7577;45.226;5.798;2022-07-15T00:32:56;98077.59;;;25.72;38.26
14966;BME280;7577;45.226;5.798;2022-07-15T00:35:26;98075.41;;;25.72;37.57
14966;BME280;7577;45.226;5.798;2022-07-15T00:37:56;98075.36;;;25.68;37.33
14966;BME280;7577;45.226;5.798;2022-07-15T00:40:26;98075.16;;;25.67;37.42
14966;BME280;7577;45.226;5.798;2022-07-15T00:42:57;98070.20;;;25.70;37.54
14966;BME280;7577;45.226;5.798;2022-07-15T00:45:28;98070.75;;;25.63;37.57
14966;BME280;7577;45.226;5.798;2022-07-15T00:47:59;98072.27;;;25.57;38.05
14966;BME280;7577;45.226;5.798;2022-07-15T00:50:30;98067.14;;;25.62;38.54
14966;BME280;7577;45.226;5.798;2022-07-15T00:55:45;98064.17;;;25.65;38.44
14966;BME280;7577;45.226;5.798;2022-07-15T00:58:18;98065.75;;;25.62;39.47
14966;BME280;7577;45.226;5.798;2022-07-15T01:00:49;98064.60;;;25.47;39.32
14966;BME280;7577;45.226;5.798;2022-07-15T01:05:59;98061.75;;;25.07;40.67
14966;BME280;7577;45.226;5.798;2022-07-15T01:08:30;98060.20;;;24.93;41.04
14966;BME280;7577;45.226;5.798;2022-07-15T01:11:00;98061.38;;;24.92;41.21
14966;BME280;7577;45.226;5.798;2022-07-15T01:13:30;98062.50;;;24.87;41.42
14966;BME280;7577;45.226;5.798;2022-07-15T01:16:00;98064.81;;;24.98;41.01
14966;BME280;7577;45.226;5.798;2022-07-15T01:18:31;98068.34;;;25.08;41.24
14966;BME280;7577;45.226;5.798;2022-07-15T01:21:01;98066.25;;;25.18;41.48
14966;BME280;7577;45.226;5.798;2022-07-15T01:23:31;98062.08;;;25.18;41.13
14966;BME280;7577;45.226;5.798;2022-07-15T01:26:01;98065.28;;;25.04;41.94
14966;BME280;7577;45.226;5.798;2022-07-15T01:28:32;98066.17;;;24.95;42.26
14966;BME280;7577;45.226;5.798;2022-07-15T01:31:02;98068.28;;;24.72;43.15
14966;BME280;7577;45.226;5.798;2022-07-15T01:33:33;98059.71;;;24.58;43.04
14966;BME280;7577;45.226;5.798;2022-07-15T01:36:04;98061.58;;;24.63;43.11
14966;BME280;7577;45.226;5.798;2022-07-15T01:38:35;98069.30;;;24.47;43.39
14966;BME280;7577;45.226;5.798;2022-07-15T01:41:05;98073.81;;;24.42;43.22
14966;BME280;7577;45.226;5.798;2022-07-15T01:43:35;98071.73;;;24.36;43.37
14966;BME280;7577;45.226;5.798;2022-07-15T01:46:05;98077.22;;;24.45;42.80
14966;BME280;7577;45.226;5.798;2022-07-15T01:48:35;98076.31;;;24.51;43.12
14966;BME280;7577;45.226;5.798;2022-07-15T01:51:23;98075.73;;;24.38;43.32
14966;BME280;7577;45.226;5.798;2022-07-15T01:53:54;98075.21;;;24.29;43.55
14966;BME280;7577;45.226;5.798;2022-07-15T01:59:05;98082.75;;;24.29;43.95
14966;BME280;7577;45.226;5.798;2022-07-15T02:01:36;98086.55;;;24.30;43.67
14966;BME280;7577;45.226;5.798;2022-07-15T02:04:06;98081.10;;;24.37;43.64
14966;BME280;7577;45.226;5.798;2022-07-15T02:09:17;98076.28;;;24.34;43.87
14966;BME280;7577;45.226;5.798;2022-07-15T02:11:47;98082.38;;;24.30;43.59
14966;BME280;7577;45.226;5.798;2022-07-15T02:14:17;98084.72;;;24.28;43.68
14966;BME280;7577;45.226;5.798;2022-07-15T02:16:48;98078.45;;;24.35;43.61
14966;BME280;7577;45.226;5.798;2022-07-15T02:19:18;98083.39;;;24.19;43.75
14966;BME280;7577;45.226;5.798;2022-07-15T02:21:48;98080.70;;;24.39;43.70
14966;BME280;7577;45.226;5.798;2022-07-15T02:24:18;98085.52;;;24.55;44.20
14966;BME280;7577;45.226;5.798;2022-07-15T02:26:49;98085.05;;;24.62;43.83
14966;BME280;7577;45.226;5.798;2022-07-15T02:29:19;98082.73;;;24.55;44.11
14966;BME280;7577;45.226;5.798;2022-07-15T02:31:49;98088.05;;;24.50;43.94
14966;BME280;7577;45.226;5.798;2022-07-15T02:34:19;98088.11;;;24.41;43.99
14966;BME280;7577;45.226;5.798;2022-07-15T02:36:49;98088.14;;;24.44;44.08
14966;BME280;7577;45.226;5.798;2022-07-15T02:39:18;98088.43;;;24.23;44.09
14966;BME280;7577;45.226;5.798;2022-07-15T02:41:48;98090.68;;;24.27;44.19
14966;BME280;7577;45.226;5.798;2022-07-15T02:44:19;98087.89;;;24.14;44.62
14966;BME280;7577;45.226;5.798;2022-07-15T02:46:49;98088.48;;;24.26;43.67
14966;BME280;7577;45.226;5.798;2022-07-15T02:49:19;98086.34;;;24.29;43.68
14966;BME280;7577;45.226;5.798;2022-07-15T02:51:49;98084.58;;;24.18;44.11
14966;BME280;7577;45.226;5.798;2022-07-15T02:54:19;98085.32;;;24.15;44.36
14966;BME280;7577;45.226;5.798;2022-07-15T02:56:49;98077.55;;;24.14;44.50
14966;BME280;7577;45.226;5.798;2022-07-15T02:59:20;98078.48;;;24.09;44.72
14966;BME280;7577;45.226;5.798;2022-07-15T03:01:50;98077.12;;;24.12;44.82
14966;BME280;7577;45.226;5.798;2022-07-15T03:04:20;98071.03;;;24.03;44.75
14966;BME280;7577;45.226;5.798;2022-07-15T03:06:50;98077.01;;;24.05;44.96
14966;BME280;7577;45.226;5.798;2022-07-15T03:09:20;98071.89;;;24.07;45.12
14966;BME280;7577;45.226;5.798;2022-07-15T03:14:30;98070.07;;;23.83;45.56
14966;BME280;7577;45.226;5.798;2022-07-15T03:19:44;98071.65;;;23.71;45.94
14966;BME280;7577;45.226;5.798;2022-07-15T03:22:14;98075.11;;;23.87;46.10
14966;BME280;7577;45.226;5.798;2022-07-15T03:24:44;98076.99;;;23.92;45.73
14966;BME280;7577;45.226;5.798;2022-07-15T03:27:14;98080.56;;;23.70;46.00
14966;BME280;7577;45.226;5.798;2022-07-15T03:29:45;98083.80;;;23.72;45.97
14966;BME280;7577;45.226;5.798;2022-07-15T03:32:15;98085.95;;;23.82;45.87
14966;BME280;7577;45.226;5.798;2022-07-15T03:34:46;98090.75;;;23.72;46.16
14966;BME280;7577;45.226;5.798;2022-07-15T03:37:17;98091.19;;;23.65;46.28
14966;BME280;7577;45.226;5.798;2022-07-15T03:39:47;98090.53;;;23.84;46.16
14966;BME280;7577;45.226;5.798;2022-07-15T03:42:17;98091.50;;;23.60;46.71
14966;BME280;7577;45.226;5.798;2022-07-15T03:44:47;98097.45;;;23.71;46.30
14966;BME280;7577;45.226;5.798;2022-07-15T03:47:18;98099.86;;;23.92;45.82
14966;BME280;7577;45.226;5.798;2022-07-15T03:49:48;98096.07;;;24.03;45.31
14966;BME280;7577;45.226;5.798;2022-07-15T03:52:18;98100.38;;;23.78;46.20
14966;BME280;7577;45.226;5.798;2022-07-15T04:07:52;98108.48;;;23.87;46.70
14966;BME280;7577;45.226;5.798;2022-07-15T04:13:04;98105.31;;;23.88;47.11
14966;BME280;7577;45.226;5.798;2022-07-15T04:15:34;98109.88;;;23.87;47.31
14966;BME280;7577;45.226;5.798;2022-07-15T04:18:05;98107.64;;;23.73;47.43
14966;BME280;7577;45.226;5.798;2022-07-15T04:20:35;98112.23;;;23.75;47.53
14966;BME280;7577;45.226;5.798;2022-07-15T04:23:05;98112.39;;;23.73;47.88
14966;BME280;7577;45.226;5.798;2022-07-15T04:25:35;98121.45;;;23.57;48.62
14966;BME280;7577;45.226;5.798;2022-07-15T04:30:43;98111.91;;;23.67;49.23
14966;BME280;7577;45.226;5.798;2022-07-15T04:33:13;98110.00;;;23.84;49.20
14966;BME280;7577;45.226;5.798;2022-07-15T04:48:47;98110.92;;;24.01;49.38
14966;BME280;7577;45.226;5.798;2022-07-15T04:54:15;98115.80;;;24.08;48.75
14966;BME280;7577;45.226;5.798;2022-07-15T04:59:26;98119.72;;;24.03;48.84
14966;BME280;7577;45.226;5.798;2022-07-15T05:04:37;98112.21;;;23.85;50.51
14966;BME280;7577;45.226;5.798;2022-07-15T05:07:08;98115.41;;;23.74;50.65
14966;BME280;7577;45.226;5.798;2022-07-15T05:09:39;98111.84;;;23.96;50.48
14966;BME280;7577;45.226;5.798;2022-07-15T05:12:09;98108.80;;;24.04;50.41
14966;BME280;7577;45.226;5.798;2022-07-15T05:14:39;98107.30;;;24.10;50.37
14966;BME280;7577;45.226;5.798;2022-07-15T05:17:09;98111.63;;;24.08;50.98
14966;BME280;7577;45.226;5.798;2022-07-15T05:19:40;98118.34;;;24.16;51.95
14966;BME280;7577;45.226;5.798;2022-07-15T05:22:10;98122.25;;;24.38;51.55
14966;BME280;7577;45.226;5.798;2022-07-15T05:24:40;98114.75;;;24.55;51.17
14966;BME280;7577;45.226;5.798;2022-07-15T05:27:10;98114.01;;;24.84;49.95
14966;BME280;7577;45.226;5.798;2022-07-15T05:29:40;98113.92;;;25.59;48.76
14966;BME280;7577;45.226;5.798;2022-07-15T05:32:10;98113.77;;;26.79;45.42
14966;BME280;7577;45.226;5.798;2022-07-15T05:34:41;98117.59;;;28.54;41.53
14966;BME280;7577;45.226;5.798;2022-07-15T05:37:11;98111.16;;;30.55;37.37
14966;BME280;7577;45.226;5.798;2022-07-15T05:39:41;98110.69;;;32.05;34.37
14966;BME280;7577;45.226;5.798;2022-07-15T05:42:13;98114.30;;;32.90;32.89
14966;BME280;7577;45.226;5.798;2022-07-15T05:44:43;98110.35;;;34.57;30.09
14966;BME280;7577;45.226;5.798;2022-07-15T05:47:14;98113.67;;;35.49;28.25
14966;BME280;7577;45.226;5.798;2022-07-15T05:49:44;98113.73;;;36.62;26.99
14966;BME280;7577;45.226;5.798;2022-07-15T05:55:26;98121.35;;;37.76;24.25
14966;BME280;7577;45.226;5.798;2022-07-15T05:58:03;98121.41;;;37.85;23.84
14966;BME280;7577;45.226;5.798;2022-07-15T06:00:32;98127.70;;;37.37;24.84
14966;BME280;7577;45.226;5.798;2022-07-15T06:03:03;98126.81;;;37.23;24.52
14966;BME280;7577;45.226;5.798;2022-07-15T06:05:33;98121.06;;;37.83;23.80
14966;BME280;7577;45.226;5.798;2022-07-15T06:08:03;98125.27;;;37.69;23.57
14966;BME280;7577;45.226;5.798;2022-07-15T06:10:33;98117.45;;;35.10;26.15
14966;BME280;7577;45.226;5.798;2022-07-15T06:13:04;98116.98;;;34.91;27.33
14966;BME280;7577;45.226;5.798;2022-07-15T06:15:34;98115.06;;;36.40;26.18
14966;BME280;7577;45.226;5.798;2022-07-15T06:18:05;98119.28;;;36.23;26.54
14966;BME280;7577;45.226;5.798;2022-07-15T06:23:18;98117.66;;;38.76;23.72
14966;BME280;7577;45.226;5.798;2022-07-15T06:25:49;98113.42;;;39.35;22.23
14966;BME280;7577;45.226;5.798;2022-07-15T06:28:22;98104.70;;;38.26;23.47
14966;BME280;7577;45.226;5.798;2022-07-15T06:37:24;98099.97;;;40.08;21.61
14966;BME280;7577;45.226;5.798;2022-07-15T07:05:20;98093.03;;;40.89;20.90
14966;BME280;7577;45.226;5.798;2022-07-15T07:11:03;98086.82;;;38.97;22.88
14966;BME280;7577;45.226;5.798;2022-07-15T07:13:33;98089.66;;;39.29;22.44
14966;BME280;7577;45.226;5.798;2022-07-15T07:16:05;98088.70;;;40.05;22.04
14966;BME280;7577;45.226;5.798;2022-07-15T07:18:35;98083.64;;;39.54;21.52
14966;BME280;7577;45.226;5.798;2022-07-15T07:21:06;98088.67;;;38.78;22.42
14966;BME280;7577;45.226;5.798;2022-07-15T07:23:36;98090.30;;;39.10;22.17
14966;BME280;7577;45.226;5.798;2022-07-15T07:26:09;98084.45;;;39.23;22.11
14966;BME280;7577;45.226;5.798;2022-07-15T07:28:46;98091.12;;;39.33;22.22
14966;BME280;7577;45.226;5.798;2022-07-15T07:31:15;98085.66;;;39.76;21.54
14966;BME280;7577;45.226;5.798;2022-07-15T07:33:45;98086.48;;;40.41;20.86
14966;BME280;7577;45.226;5.798;2022-07-15T07:36:19;98088.27;;;39.97;21.40
14966;BME280;7577;45.226;5.798;2022-07-15T07:42:06;98080.94;;;39.59;21.30
14966;BME280;7577;45.226;5.798;2022-07-15T07:44:37;98081.75;;;40.01;20.72
14966;BME280;7577;45.226;5.798;2022-07-15T07:49:47;98080.41;;;40.76;19.76
14966;BME280;7577;45.226;5.798;2022-07-15T07:59:09;98081.91;;;39.43;21.97
14966;BME280;7577;45.226;5.798;2022-07-15T08:15:09;98064.93;;;42.81;18.68
14966;BME280;7577;45.226;5.798;2022-07-15T08:20:21;98064.09;;;41.92;19.37
14966;BME280;7577;45.226;5.798;2022-07-15T08:25:36;98055.32;;;42.94;18.11
14966;BME280;7577;45.226;5.798;2022-07-15T08:28:08;98061.35;;;43.78;17.45
14966;BME280;7577;45.226;5.798;2022-07-15T08:30:38;98055.13;;;44.31;16.88
14966;BME280;7577;45.226;5.798;2022-07-15T08:33:08;98070.97;;;43.90;17.72
14966;BME280;7577;45.226;5.798;2022-07-15T08:35:41;98061.08;;;43.91;17.47
14966;BME280;7577;45.226;5.798;2022-07-15T08:38:12;98054.17;;;44.93;16.49
14966;BME280;7577;45.226;5.798;2022-07-15T08:40:42;98052.33;;;44.63;16.77
14966;BME280;7577;45.226;5.798;2022-07-15T08:43:12;98057.66;;;44.08;17.30
14966;BME280;7577;45.226;5.798;2022-07-15T08:45:43;98055.34;;;44.12;17.38
14966;BME280;7577;45.226;5.798;2022-07-15T08:48:14;98052.16;;;43.74;17.09
14966;BME280;7577;45.226;5.798;2022-07-15T08:50:44;98053.15;;;43.55;17.40
14966;BME280;7577;45.226;5.798;2022-07-15T08:53:18;98049.24;;;42.67;18.15
14966;BME280;7577;45.226;5.798;2022-07-15T08:55:48;98042.47;;;43.20;18.17
14966;BME280;7577;45.226;5.798;2022-07-15T09:01:06;98047.78;;;41.44;19.49
14966;BME280;7577;45.226;5.798;2022-07-15T09:12:51;98038.61;;;42.53;18.48
14966;BME280;7577;45.226;5.798;2022-07-15T09:15:32;98041.03;;;42.30;18.24
14966;BME280;7577;45.226;5.798;2022-07-15T09:18:11;98040.31;;;41.28;19.34
14966;BME280;7577;45.226;5.798;2022-07-15T09:20:43;98036.89;;;41.19;19.50
14966;BME280;7577;45.226;5.798;2022-07-15T09:23:16;98038.55;;;40.92;19.71
14966;BME280;7577;45.226;5.798;2022-07-15T09:25:50;98034.92;;;41.40;19.65
14966;BME280;7577;45.226;5.798;2022-07-15T09:31:05;98021.20;;;40.34;20.65
14966;BME280;7577;45.226;5.798;2022-07-15T09:34:01;98021.78;;;39.82;21.37
14966;BME280;7577;45.226;5.798;2022-07-15T09:36:33;98016.36;;;39.34;22.11
14966;BME280;7577;45.226;5.798;2022-07-15T09:39:04;98016.36;;;39.34;22.16
14966;BME280;7577;45.226;5.798;2022-07-15T09:41:38;98015.44;;;38.60;21.29
14966;BME280;7577;45.226;5.798;2022-07-15T09:44:11;98015.42;;;38.46;21.65
14966;BME280;7577;45.226;5.798;2022-07-15T09:46:44;98011.48;;;37.95;22.30
14966;BME280;7577;45.226;5.798;2022-07-15T09:49:30;98006.63;;;37.39;23.13
14966;BME280;7577;45.226;5.798;2022-07-15T09:51:54;98008.45;;;37.94;22.89
14966;BME280;7577;45.226;5.798;2022-07-15T09:57:11;98002.41;;;38.27;23.07
14966;BME280;7577;45.226;5.798;2022-07-15T09:59:44;97997.98;;;37.78;23.49
14966;BME280;7577;45.226;5.798;2022-07-15T10:02:16;97995.01;;;37.86;24.32
14966;BME280;7577;45.226;5.798;2022-07-15T10:04:46;97994.98;;;36.99;24.17
14966;BME280;7577;45.226;5.798;2022-07-15T10:07:18;97994.73;;;37.10;24.90
14966;BME280;7577;45.226;5.798;2022-07-15T10:12:49;97990.06;;;36.22;25.16
14966;BME280;7577;45.226;5.798;2022-07-15T10:15:09;97992.49;;;35.86;26.46
14966;BME280;7577;45.226;5.798;2022-07-15T10:17:58;97989.59;;;35.82;25.78
14966;BME280;7577;45.226;5.798;2022-07-15T10:33:08;97974.48;;;35.97;25.30
14966;BME280;7577;45.226;5.798;2022-07-15T10:35:45;97972.91;;;35.96;26.66
14966;BME280;7577;45.226;5.798;2022-07-15T10:38:30;97967.78;;;35.74;25.83
14966;BME280;7577;45.226;5.798;2022-07-15T10:48:27;97967.31;;;35.51;26.62
14966;BME280;7577;45.226;5.798;2022-07-15T10:50:59;97954.34;;;35.58;27.26
14966;BME280;7577;45.226;5.798;2022-07-15T10:56:29;97955.66;;;35.49;26.89
14966;BME280;7577;45.226;5.798;2022-07-15T11:02:10;97943.53;;;35.61;27.84
14966;BME280;7577;45.226;5.798;2022-07-15T11:04:39;97947.31;;;35.50;27.67
14966;BME280;7577;45.226;5.798;2022-07-15T11:07:28;97947.19;;;35.53;27.43
14966;BME280;7577;45.226;5.798;2022-07-15T11:10:20;97942.86;;;35.24;26.86
14966;BME280;7577;45.226;5.798;2022-07-15T11:13:07;97942.16;;;34.66;27.38
14966;BME280;7577;45.226;5.798;2022-07-15T11:15:38;97928.34;;;34.19;28.21
14966;BME280;7577;45.226;5.798;2022-07-15T11:18:08;97928.41;;;34.32;28.64
14966;BME280;7577;45.226;5.798;2022-07-15T11:20:38;97932.03;;;34.61;28.84
14966;BME280;7577;45.226;5.798;2022-07-15T11:23:08;97928.93;;;34.63;28.54
14966;BME280;7577;45.226;5.798;2022-07-15T11:25:41;97928.37;;;34.68;27.77
14966;BME280;7577;45.226;5.798;2022-07-15T11:28:12;97921.49;;;34.61;28.26
14966;BME280;7577;45.226;5.798;2022-07-15T11:30:45;97921.83;;;34.71;27.52
14966;BME280;7577;45.226;5.798;2022-07-15T11:33:19;97911.00;;;34.82;27.42
14966;BME280;7577;45.226;5.798;2022-07-15T11:35:51;97907.56;;;34.95;27.60
14966;BME280;7577;45.226;5.798;2022-07-15T11:41:07;97905.09;;;35.10;28.15
14966;BME280;7577;45.226;5.798;2022-07-15T11:46:43;97895.39;;;34.90;27.01
14966;BME280;7577;45.226;5.798;2022-07-15T11:49:25;97888.48;;;34.71;27.78
14966;BME280;7577;45.226;5.798;2022-07-15T11:51:56;97888.59;;;34.88;28.29
14966;BME280;7577;45.226;5.798;2022-07-15T11:57:11;97878.19;;;35.10;27.82
14966;BME280;7577;45.226;5.798;2022-07-15T11:59:50;97878.36;;;34.98;27.52
14966;BME280;7577;45.226;5.798;2022-07-15T12:05:42;97869.23;;;35.24;27.60
14966;BME280;7577;45.226;5.798;2022-07-15T12:08:12;97872.64;;;35.19;27.22
14966;BME280;7577;45.226;5.798;2022-07-15T12:10:43;97869.28;;;35.16;27.26
14966;BME280;7577;45.226;5.798;2022-07-15T12:13:14;97861.59;;;35.16;28.02
14966;BME280;7577;45.226;5.798;2022-07-15T12:15:44;97861.98;;;34.98;26.97
14966;BME280;7577;45.226;5.798;2022-07-15T12:18:15;97861.86;;;35.01;26.97
14966;BME280;7577;45.226;5.798;2022-07-15T12:20:46;97862.72;;;34.94;27.92
14966;BME280;7577;45.226;5.798;2022-07-15T12:23:18;97857.86;;;34.94;28.29
14966;BME280;7577;45.226;5.798;2022-07-15T12:28:32;97855.58;;;35.14;27.46
14966;BME280;7577;45.226;5.798;2022-07-15T12:31:03;97852.08;;;34.98;27.79
14966;BME280;7577;45.226;5.798;2022-07-15T12:36:22;97848.95;;;34.34;28.15
14966;BME280;7577;45.226;5.798;2022-07-15T12:42:02;97848.74;;;34.62;25.86
14966;BME280;7577;45.226;5.798;2022-07-15T12:47:19;97844.48;;;34.82;26.36
14966;BME280;7577;45.226;5.798;2022-07-15T12:52:34;97840.03;;;34.28;25.08
14966;BME280;7577;45.226;5.798;2022-07-15T12:58:07;97836.97;;;34.84;26.84
14966;BME280;7577;45.226;5.798;2022-07-15T13:00:44;97845.50;;;34.88;25.80
14966;BME280;7577;45.226;5.798;2022-07-15T13:03:17;97845.02;;;34.77;24.90
14966;BME280;7577;45.226;5.798;2022-07-15T13:05:50;97839.16;;;34.64;25.08
14966;BME280;7577;45.226;5.798;2022-07-15T13:08:22;97833.62;;;34.73;25.11
14966;BME280;7577;45.226;5.798;2022-07-15T13:10:54;97834.72;;;34.71;24.90
14966;BME280;7577;45.226;5.798;2022-07-15T13:13:27;97833.53;;;34.84;25.91
14966;BME280;7577;45.226;5.798;2022-07-15T13:16:00;97833.56;;;34.89;24.45
14966;BME280;7577;45.226;5.798;2022-07-15T13:18:32;97828.92;;;34.82;25.21
14966;BME280;7577;45.226;5.798;2022-07-15T13:23:43;97823.82;;;34.90;25.62
14966;BME280;7577;45.226;5.798;2022-07-15T13:26:15;97829.88;;;34.96;25.31
14966;BME280;7577;45.226;5.798;2022-07-15T13:28:45;97828.58;;;35.05;25.92
14966;BME280;7577;45.226;5.798;2022-07-15T13:31:15;97828.42;;;35.17;25.77
14966;BME280;7577;45.226;5.798;2022-07-15T13:33:45;97825.76;;;35.30;25.49
14966;BME280;7577;45.226;5.798;2022-07-15T13:36:15;97826.11;;;35.32;25.00
14966;BME280;7577;45.226;5.798;2022-07-15T13:38:45;97824.73;;;35.37;24.49
14966;BME280;7577;45.226;5.798;2022-07-15T13:41:15;97823.08;;;35.19;25.14
14966;BME280;7577;45.226;5.798;2022-07-15T13:43:46;97828.41;;;35.04;24.95
14966;BME280;7577;45.226;5.798;2022-07-15T13:46:16;97823.05;;;34.89;24.52
14966;BME280;7577;45.226;5.798;2022-07-15T13:48:46;97816.82;;;34.94;24.72
14966;BME280;7577;45.226;5.798;2022-07-15T13:51:16;97821.63;;;34.89;25.01
14966;BME280;7577;45.226;5.798;2022-07-15T13:53:55;97824.75;;;34.87;25.24
14966;BME280;7577;45.226;5.798;2022-07-15T13:59:09;97811.34;;;35.25;25.49
14966;BME280;7577;45.226;5.798;2022-07-15T14:04:21;97819.19;;;35.33;25.15
14966;BME280;7577;45.226;5.798;2022-07-15T14:06:51;97812.84;;;35.29;24.29
14966;BME280;7577;45.226;5.798;2022-07-15T14:09:21;97821.78;;;35.03;25.32
14966;BME280;7577;45.226;5.798;2022-07-15T14:11:51;97818.11;;;34.98;24.18
14966;BME280;7577;45.226;5.798;2022-07-15T14:14:22;97818.86;;;34.81;24.79
14966;BME280;7577;45.226;5.798;2022-07-15T14:16:53;97829.73;;;34.83;24.62
14966;BME280;7577;45.226;5.798;2022-07-15T14:19:23;97824.55;;;34.86;24.14
14966;BME280;7577;45.226;5.798;2022-07-15T14:21:53;97833.05;;;34.86;24.04
14966;BME280;7577;45.226;5.798;2022-07-15T14:24:23;97824.39;;;34.85;24.52
14966;BME280;7577;45.226;5.798;2022-07-15T14:26:53;97822.37;;;34.85;24.46
14966;BME280;7577;45.226;5.798;2022-07-15T14:29:24;97831.14;;;34.95;24.17
14966;BME280;7577;45.226;5.798;2022-07-15T14:31:54;97831.66;;;34.98;24.46
14966;BME280;7577;45.226;5.798;2022-07-15T14:34:24;97824.05;;;34.95;24.49
14966;BME280;7577;45.226;5.798;2022-07-15T14:36:54;97825.88;;;34.89;23.93
14966;BME280;7577;45.226;5.798;2022-07-15T14:39:24;97835.83;;;34.94;23.89
14966;BME280;7577;45.226;5.798;2022-07-15T14:41:54;97832.67;;;34.92;24.48
14966;BME280;7577;45.226;5.798;2022-07-15T14:44:24;97824.80;;;35.04;24.59
14966;BME280;7577;45.226;5.798;2022-07-15T14:46:54;97835.20;;;35.07;23.47
14966;BME280;7577;45.226;5.798;2022-07-15T14:49:24;97836.80;;;34.95;23.41
14966;BME280;7577;45.226;5.798;2022-07-15T14:51:55;97836.39;;;34.89;23.87
14966;BME280;7577;45.226;5.798;2022-07-15T14:54:26;97838.50;;;34.80;24.65
14966;BME280;7577;45.226;5.798;2022-07-15T14:56:56;97835.33;;;34.70;23.34
14966;BME280;7577;45.226;5.798;2022-07-15T14:59:27;97830.71;;;34.76;24.23
14966;BME280;7577;45.226;5.798;2022-07-15T15:01:57;97841.38;;;34.85;23.96
14966;BME280;7577;45.226;5.798;2022-07-15T15:04:27;97837.13;;;34.85;23.95
14966;BME280;7577;45.226;5.798;2022-07-15T15:06:58;97841.33;;;34.93;24.39
14966;BME280;7577;45.226;5.798;2022-07-15T15:09:28;97827.39;;;34.86;24.03
14966;BME280;7577;45.226;5.798;2022-07-15T15:11:58;97833.69;;;34.85;23.81
14966;BME280;7577;45.226;5.798;2022-07-15T15:14:28;97835.27;;;34.86;24.19
14966;BME280;7577;45.226;5.798;2022-07-15T15:16:59;97838.75;;;34.78;23.95
14966;BME280;7577;45.226;5.798;2022-07-15T15:19:29;97826.91;;;34.62;24.42
14966;BME280;7577;45.226;5.798;2022-07-15T15:22:00;97831.93;;;34.63;24.28
14966;BME280;7577;45.226;5.798;2022-07-15T15:27:15;97831.93;;;34.63;25.71
14966;BME280;7577;45.226;5.798;2022-07-15T15:29:45;97832.38;;;34.61;24.22
14966;BME280;7577;45.226;5.798;2022-07-15T15:32:15;97823.60;;;34.51;24.28
14966;BME280;7577;45.226;5.798;2022-07-15T15:34:46;97823.31;;;34.54;24.90
14966;BME280;7577;45.226;5.798;2022-07-15T15:37:17;97822.22;;;34.43;25.34
14966;BME280;7577;45.226;5.798;2022-07-15T15:39:47;97826.33;;;34.26;25.42
14966;BME280;7577;45.226;5.798;2022-07-15T15:58:01;97819.13;;;34.17;25.82
14966;BME280;7577;45.226;5.798;2022-07-15T16:00:31;97816.00;;;34.07;25.57
14966;BME280;7577;45.226;5.798;2022-07-15T16:03:02;97821.13;;;34.04;25.77
14966;BME280;7577;45.226;5.798;2022-07-15T16:05:32;97815.55;;;34.09;25.96
14966;BME280;7577;45.226;5.798;2022-07-15T16:10:45;97811.67;;;34.03;25.94
14966;BME280;7577;45.226;5.798;2022-07-15T16:15:57;97818.36;;;33.80;26.37
14966;BME280;7577;45.226;5.798;2022-07-15T16:18:28;97811.30;;;33.72;26.83
14966;BME280;7577;45.226;5.798;2022-07-15T16:20:59;97815.02;;;33.61;26.96
14966;BME280;7577;45.226;5.798;2022-07-15T16:23:30;97808.87;;;33.58;26.76
14966;BME280;7577;45.226;5.798;2022-07-15T16:26:00;97808.17;;;33.54;26.48
14966;BME280;7577;45.226;5.798;2022-07-15T16:31:22;97812.39;;;33.62;26.40
14966;BME280;7577;45.226;5.798;2022-07-15T16:33:52;97810.45;;;33.59;26.62
14966;BME280;7577;45.226;5.798;2022-07-15T16:36:23;97814.51;;;33.66;26.22
14966;BME280;7577;45.226;5.798;2022-07-15T16:38:53;97809.64;;;33.58;26.07
14966;BME280;7577;45.226;5.798;2022-07-15T16:41:23;97808.59;;;33.61;26.30
14966;BME280;7577;45.226;5.798;2022-07-15T16:43:53;97812.41;;;33.46;26.38
14966;BME280;7577;45.226;5.798;2022-07-15T16:46:23;97809.15;;;33.48;26.42
14966;BME280;7577;45.226;5.798;2022-07-15T16:48:53;97816.91;;;33.43;26.59
14966;BME280;7577;45.226;5.798;2022-07-15T16:51:23;97814.90;;;33.44;26.59
14966;BME280;7577;45.226;5.798;2022-07-15T16:53:53;97821.32;;;33.44;26.40
14966;BME280;7577;45.226;5.798;2022-07-15T16:56:24;97827.17;;;33.38;26.69
14966;BME280;7577;45.226;5.798;2022-07-15T16:58:54;97819.45;;;33.30;26.74
14966;BME280;7577;45.226;5.798;2022-07-15T17:01:24;97818.23;;;33.23;27.09
14966;BME280;7577;45.226;5.798;2022-07-15T17:03:55;97823.88;;;33.15;26.76
14966;BME280;7577;45.226;5.798;2022-07-15T17:09:04;97823.86;;;33.07;27.34
14966;BME280;7577;45.226;5.798;2022-07-15T17:11:35;97833.41;;;33.05;26.94
14966;BME280;7577;45.226;5.798;2022-07-15T17:14:05;97831.45;;;33.02;26.80
14966;BME280;7577;45.226;5.798;2022-07-15T17:16:35;97831.44;;;32.94;27.08
14966;BME280;7577;45.226;5.798;2022-07-15T17:19:05;97837.78;;;32.90;27.39
14966;BME280;7577;45.226;5.798;2022-07-15T17:21:35;97835.48;;;32.85;27.41
14966;BME280;7577;45.226;5.798;2022-07-15T17:26:49;97840.02;;;32.71;27.22
14966;BME280;7577;45.226;5.798;2022-07-15T17:31:59;97836.69;;;32.48;27.45
14966;BME280;7577;45.226;5.798;2022-07-15T17:34:30;97845.58;;;32.47;28.03
14966;BME280;7577;45.226;5.798;2022-07-15T17:37:01;97844.48;;;32.33;27.65
14966;BME280;7577;45.226;5.798;2022-07-15T17:39:32;97843.06;;;32.33;27.82
14966;BME280;7577;45.226;5.798;2022-07-15T17:42:02;97852.65;;;32.16;27.92